Time;durP1;ratioP1;P1;durP2;ratioP2;P2;SDS_P1;SDS_P2;PMS_P1;PMS_P2;Temp;Humidity;BMP_temperature;BMP_pressure;BME280_temperature;BME280_humidity;BME280_pressure;Samples;Min_cycle;Max_cycle;Signal;HPM_P1;HPM_P2
2024/01/04 00:00:35;;;;;;;14.05;4.45;;;;;;;;;;5029888;28;20025;-75
2024/01/04 00:03:02;;;;;;;12.55;3.53;;;;;;;;;;5029687;28;20036;-75
2024/01/04 00:05:28;;;;;;;21.40;3.55;;;;;;;;;;5034273;28;20059;-74
2024/01/04 00:07:54;;;;;;;15.43;3.58;;;;;;;;;;5028418;28;20033;-76
2024/01/04 00:10:20;;;;;;;11.93;3.20;;;;;;;;;;5025712;28;20029;-75
2024/01/04 00:12:48;;;;;;;16.15;3.53;;;;;;;;;;5026535;28;20034;-74
2024/01/04 00:15:15;;;;;;;15.77;3.60;;;;;;;;;;5027309;28;20079;-75
2024/01/04 00:17:41;;;;;;;15.20;3.20;;;;;;;;;;5026815;28;20110;-77
2024/01/04 00:20:09;;;;;;;21.60;3.65;;;;;;;;;;5028061;28;20174;-75
2024/01/04 00:22:35;;;;;;;13.07;3.08;;;;;;;;;;5028242;28;20033;-75
2024/01/04 00:25:01;;;;;;;16.42;3.10;;;;;;;;;;5028543;28;20022;-75
2024/01/04 00:27:28;;;;;;;19.73;3.75;;;;;;;;;;5029799;28;20048;-74
2024/01/04 00:29:54;;;;;;;18.42;4.32;;;;;;;;;;5027591;28;20119;-75
2024/01/04 00:32:20;;;;;;;17.50;3.38;;;;;;;;;;5029987;28;20030;-75
2024/01/04 00:34:46;;;;;;;13.02;3.55;;;;;;;;;;5029806;28;20573;-76
2024/01/04 00:37:12;;;;;;;14.82;4.30;;;;;;;;;;5029783;28;20033;-75
2024/01/04 00:39:38;;;;;;;12.75;4.65;;;;;;;;;;5028330;28;20084;-75
2024/01/04 00:42:05;;;;;;;14.70;4.32;;;;;;;;;;5030599;28;20214;-75
2024/01/04 00:44:31;;;;;;;27.95;4.75;;;;;;;;;;5030427;28;20029;-75
2024/01/04 00:46:57;;;;;;;14.93;4.55;;;;;;;;;;5044212;28;20502;-75
2024/01/04 00:49:23;;;;;;;23.83;5.13;;;;;;;;;;5030258;28;20025;-75
2024/01/04 00:51:50;;;;;;;25.50;4.40;;;;;;;;;;5026415;28;20034;-75
2024/01/04 00:54:16;;;;;;;30.20;7.47;;;;;;;;;;5027612;28;20065;-75
2024/01/04 00:56:42;;;;;;;26.30;5.10;;;;;;;;;;5024012;28;20467;-75
2024/01/04 00:59:08;;;;;;;22.85;5.68;;;;;;;;;;5029511;28;20041;-75
2024/01/04 01:01:35;;;;;;;26.92;7.07;;;;;;;;;;5027531;28;20368;-74
2024/01/04 01:04:01;;;;;;;30.27;6.75;;;;;;;;;;5026451;28;20068;-75
2024/01/04 01:06:27;;;;;;;29.85;7.43;;;;;;;;;;5022032;28;20029;-75
2024/01/04 01:08:53;;;;;;;21.67;7.40;;;;;;;;;;5028541;28;20021;-75
2024/01/04 01:11:20;;;;;;;29.33;8.75;;;;;;;;;;5028517;28;20104;-75
2024/01/04 01:13:46;;;;;;;28.10;6.97;;;;;;;;;;5028603;28;20091;-75
2024/01/04 01:16:12;;;;;;;25.17;7.03;;;;;;;;;;5025311;28;20041;-75
2024/01/04 01:18:38;;;;;;;22.90;7.28;;;;;;;;;;5029110;28;20037;-76
2024/01/04 01:21:05;;;;;;;25.70;6.88;;;;;;;;;;5028516;28;20030;-75
2024/01/04 01:23:31;;;;;;;21.85;8.07;;;;;;;;;;5028126;28;20109;-75
2024/01/04 01:25:57;;;;;;;26.38;8.50;;;;;;;;;;5024326;28;20494;-75
2024/01/04 01:28:23;;;;;;;30.75;8.68;;;;;;;;;;5024434;28;20037;-75
2024/01/04 01:30:50;;;;;;;26.33;8.23;;;;;;;;;;5021307;28;20551;-74
2024/01/04 01:33:16;;;;;;;27.10;9.13;;;;;;;;;;5029991;28;20036;-74
2024/01/04 01:35:43;;;;;;;23.27;8.05;;;;;;;;;;5027313;28;20379;-75
2024/01/04 01:38:09;;;;;;;31.60;7.88;;;;;;;;;;5028594;28;20071;-75
2024/01/04 01:40:35;;;;;;;24.02;7.05;;;;;;;;;;5027844;28;20034;-75
2024/01/04 01:43:01;;;;;;;25.02;6.97;;;;;;;;;;5027889;28;20040;-75
2024/01/04 01:45:27;;;;;;;24.42;6.88;;;;;;;;;;5026615;28;20037;-75
2024/01/04 01:47:54;;;;;;;29.75;8.88;;;;;;;;;;5026135;28;20479;-75
2024/01/04 01:50:21;;;;;;;26.30;7.65;;;;;;;;;;5025889;28;20025;-75
2024/01/04 01:52:48;;;;;;;21.10;6.93;;;;;;;;;;5029415;28;20021;-75
2024/01/04 01:55:15;;;;;;;25.48;6.78;;;;;;;;;;5009525;28;20298;-75
2024/01/04 01:57:42;;;;;;;18.88;6.50;;;;;;;;;;5025103;28;20029;-75
2024/01/04 02:00:09;;;;;;;22.50;6.93;;;;;;;;;;5026550;28;20053;-75
2024/01/04 02:02:45;;;;;;;24.70;7.25;;;;;;;;;;5028880;28;20041;-74
2024/01/04 02:05:13;;;;;;;19.70;7.80;;;;;;;;;;5027250;28;20077;-75
2024/01/04 02:07:39;;;;;;;20.80;7.18;;;;;;;;;;5028356;28;20029;-76
2024/01/04 02:10:06;;;;;;;25.88;7.78;;;;;;;;;;5027378;28;20032;-75
2024/01/04 02:12:32;;;;;;;20.23;6.90;;;;;;;;;;5025368;28;20092;-75
2024/01/04 02:14:58;;;;;;;23.77;7.45;;;;;;;;;;5028644;28;20103;-75
2024/01/04 02:17:25;;;;;;;19.20;6.72;;;;;;;;;;5028186;28;20088;-74
2024/01/04 02:19:55;;;;;;;21.13;6.30;;;;;;;;;;5031990;28;20037;-76
2024/01/04 02:22:21;;;;;;;22.15;6.95;;;;;;;;;;5027752;28;20083;-75
2024/01/04 02:24:47;;;;;;;27.92;7.03;;;;;;;;;;5028284;28;20147;-75
2024/01/04 02:27:13;;;;;;;27.88;7.82;;;;;;;;;;5032243;28;20039;-76
2024/01/04 02:29:39;;;;;;;27.00;7.72;;;;;;;;;;5031624;28;20449;-75
2024/01/04 02:32:06;;;;;;;20.17;6.72;;;;;;;;;;5029207;28;20083;-75
2024/01/04 02:34:33;;;;;;;24.30;6.82;;;;;;;;;;5030704;28;20060;-75
2024/01/04 02:37:00;;;;;;;21.30;6.18;;;;;;;;;;5031149;28;20029;-75
2024/01/04 02:39:26;;;;;;;26.33;5.88;;;;;;;;;;5029120;28;20026;-75
2024/01/04 02:41:55;;;;;;;15.80;5.68;;;;;;;;;;5031128;28;20030;-75
2024/01/04 02:44:21;;;;;;;15.23;5.35;;;;;;;;;;5032054;28;20060;-75
2024/01/04 02:46:48;;;;;;;17.02;5.88;;;;;;;;;;5029165;28;20034;-77
2024/01/04 02:49:14;;;;;;;23.02;5.80;;;;;;;;;;5031740;28;20071;-76
2024/01/04 02:51:40;;;;;;;18.17;4.85;;;;;;;;;;5029346;28;20105;-75
2024/01/04 02:54:08;;;;;;;19.05;5.13;;;;;;;;;;5026663;28;20072;-76
2024/01/04 02:56:34;;;;;;;25.80;5.50;;;;;;;;;;5030460;28;20037;-76
2024/01/04 02:59:01;;;;;;;24.13;5.65;;;;;;;;;;5032139;28;20042;-75
2024/01/04 03:01:27;;;;;;;22.25;4.57;;;;;;;;;;5030527;28;20099;-76
2024/01/04 03:03:55;;;;;;;17.88;5.03;;;;;;;;;;5029036;28;20029;-74
2024/01/04 03:06:30;;;;;;;20.42;4.72;;;;;;;;;;5031315;28;20026;-74
2024/01/04 03:08:57;;;;;;;19.27;5.15;;;;;;;;;;5029076;28;20029;-75
2024/01/04 03:11:23;;;;;;;22.60;5.00;;;;;;;;;;5031439;28;20022;-76
2024/01/04 03:13:49;;;;;;;22.73;5.75;;;;;;;;;;5032173;28;20076;-75
2024/01/04 03:16:16;;;;;;;20.25;5.53;;;;;;;;;;5029661;28;20048;-75
2024/01/04 03:18:42;;;;;;;23.17;5.97;;;;;;;;;;5032456;28;20502;-75
2024/01/04 03:21:08;;;;;;;28.00;5.95;;;;;;;;;;5027291;28;20033;-75
2024/01/04 03:23:35;;;;;;;22.17;6.15;;;;;;;;;;5030005;28;20562;-77
2024/01/04 03:26:01;;;;;;;17.42;5.28;;;;;;;;;;5033873;28;20056;-76
2024/01/04 03:28:27;;;;;;;22.45;6.00;;;;;;;;;;5029500;28;20053;-75
2024/01/04 03:30:53;;;;;;;27.48;6.43;;;;;;;;;;5030122;28;20513;-75
2024/01/04 03:33:19;;;;;;;20.38;5.43;;;;;;;;;;5030610;28;20521;-75
2024/01/04 03:35:45;;;;;;;23.25;5.38;;;;;;;;;;5030427;28;20069;-76
2024/01/04 03:38:12;;;;;;;19.48;5.85;;;;;;;;;;5031423;28;20112;-76
2024/01/04 03:40:38;;;;;;;25.90;5.40;;;;;;;;;;5025992;28;20450;-76
2024/01/04 03:43:04;;;;;;;19.95;5.97;;;;;;;;;;5029632;28;20068;-76
2024/01/04 03:45:31;;;;;;;21.40;5.85;;;;;;;;;;5028579;28;20022;-76
2024/01/04 03:47:58;;;;;;;19.50;5.78;;;;;;;;;;5028200;28;20116;-75
2024/01/04 03:50:24;;;;;;;18.13;6.20;;;;;;;;;;5028668;28;20084;-75
2024/01/04 03:52:50;;;;;;;19.10;6.05;;;;;;;;;;5029512;28;20025;-75
2024/01/04 03:55:17;;;;;;;22.42;6.35;;;;;;;;;;5029016;28;20065;-75
2024/01/04 03:57:43;;;;;;;18.67;5.55;;;;;;;;;;5030466;28;20053;-76
2024/01/04 04:00:10;;;;;;;28.30;6.70;;;;;;;;;;5027937;28;20041;-76
2024/01/04 04:02:39;;;;;;;29.25;6.65;;;;;;;;;;5045701;28;20415;-75
2024/01/04 04:05:05;;;;;;;30.30;8.00;;;;;;;;;;5029449;28;20034;-75
2024/01/04 04:07:31;;;;;;;36.17;7.18;;;;;;;;;;5028436;28;20025;-75
2024/01/04 04:09:58;;;;;;;21.83;6.50;;;;;;;;;;5030039;28;20029;-74
2024/01/04 04:12:25;;;;;;;31.80;7.22;;;;;;;;;;5028639;28;20442;-75
2024/01/04 04:14:51;;;;;;;21.00;5.38;;;;;;;;;;5021774;28;20064;-76
2024/01/04 04:17:24;;;;;;;17.02;5.13;;;;;;;;;;5024436;28;20116;-77
2024/01/04 04:19:50;;;;;;;17.77;4.70;;;;;;;;;;5030294;28;20999;-76
2024/01/04 04:22:16;;;;;;;16.00;5.20;;;;;;;;;;5029218;28;20029;-76
2024/01/04 04:24:42;;;;;;;21.00;4.13;;;;;;;;;;5024400;28;20721;-75
2024/01/04 04:27:09;;;;;;;15.23;3.95;;;;;;;;;;5029301;28;20383;-75
2024/01/04 04:29:38;;;;;;;11.30;3.70;;;;;;;;;;5027963;28;20156;-75
2024/01/04 04:32:05;;;;;;;13.70;3.80;;;;;;;;;;5026861;28;20495;-75
2024/01/04 04:34:31;;;;;;;17.63;4.63;;;;;;;;;;5030510;28;20056;-76
2024/01/04 04:36:57;;;;;;;13.52;4.05;;;;;;;;;;5029381;28;20041;-76
2024/01/04 04:39:23;;;;;;;15.98;4.72;;;;;;;;;;5029662;28;20029;-76
2024/01/04 04:41:49;;;;;;;14.00;5.05;;;;;;;;;;5027013;28;20155;-75
2024/01/04 04:44:15;;;;;;;18.33;5.40;;;;;;;;;;5030208;28;20022;-75
2024/01/04 04:46:41;;;;;;;16.23;4.40;;;;;;;;;;5027900;28;20033;-76
2024/01/04 04:49:07;;;;;;;13.63;5.15;;;;;;;;;;5028180;28;20116;-75
2024/01/04 04:51:34;;;;;;;12.05;3.95;;;;;;;;;;5022928;28;20029;-75
2024/01/04 04:54:00;;;;;;;10.95;4.00;;;;;;;;;;5026809;28;20038;-75
2024/01/04 04:56:26;;;;;;;16.33;4.20;;;;;;;;;;5028356;28;20029;-75
2024/01/04 04:58:52;;;;;;;14.93;4.18;;;;;;;;;;5029119;28;20048;-75
2024/01/04 05:01:18;;;;;;;11.80;4.03;;;;;;;;;;5024459;28;20040;-75
2024/01/04 05:03:44;;;;;;;15.48;4.95;;;;;;;;;;5029329;28;20038;-75
2024/01/04 05:06:10;;;;;;;11.63;4.95;;;;;;;;;;5023088;28;20148;-75
2024/01/04 05:08:40;;;;;;;17.80;4.63;;;;;;;;;;5028842;28;20064;-75
2024/01/04 05:11:06;;;;;;;14.70;4.22;;;;;;;;;;5027617;28;20056;-75
2024/01/04 05:13:33;;;;;;;15.20;4.35;;;;;;;;;;5028838;28;20527;-74
2024/01/04 05:15:59;;;;;;;18.38;4.45;;;;;;;;;;5026368;28;20040;-75
2024/01/04 05:18:25;;;;;;;11.90;4.28;;;;;;;;;;5027289;28;20355;-75
2024/01/04 05:20:51;;;;;;;13.30;4.35;;;;;;;;;;5027064;28;20040;-76
2024/01/04 05:23:17;;;;;;;12.02;3.72;;;;;;;;;;5027073;28;20037;-75
2024/01/04 05:25:44;;;;;;;13.85;4.00;;;;;;;;;;5026851;28;20072;-75
2024/01/04 05:28:10;;;;;;;12.60;4.63;;;;;;;;;;5026503;28;20025;-76
2024/01/04 05:30:37;;;;;;;14.52;4.80;;;;;;;;;;5024701;28;20061;-75
2024/01/04 05:33:03;;;;;;;10.18;3.95;;;;;;;;;;5027675;28;20060;-76
2024/01/04 05:35:30;;;;;;;10.90;4.18;;;;;;;;;;5027545;28;20075;-75
2024/01/04 05:37:56;;;;;;;8.98;4.40;;;;;;;;;;5028335;28;20064;-75
2024/01/04 05:40:22;;;;;;;14.02;4.28;;;;;;;;;;5026489;28;20044;-76
2024/01/04 05:42:48;;;;;;;12.05;4.05;;;;;;;;;;5027109;28;20052;-76
2024/01/04 05:45:14;;;;;;;12.18;5.25;;;;;;;;;;5024932;28;20029;-76
2024/01/04 05:47:40;;;;;;;18.25;4.28;;;;;;;;;;5026659;28;20094;-76
2024/01/04 05:50:07;;;;;;;15.23;4.43;;;;;;;;;;5027883;28;20043;-76
2024/01/04 05:52:33;;;;;;;17.73;4.15;;;;;;;;;;5023918;28;20107;-77
2024/01/04 05:54:59;;;;;;;14.05;4.85;;;;;;;;;;5025479;28;20046;-76
2024/01/04 05:57:28;;;;;;;14.13;4.40;;;;;;;;;;5027132;28;20061;-75
2024/01/04 05:59:55;;;;;;;16.52;3.97;;;;;;;;;;5035103;28;20058;-75
2024/01/04 06:02:22;;;;;;;12.70;4.40;;;;;;;;;;5025604;28;20029;-75
2024/01/04 06:04:48;;;;;;;11.32;3.88;;;;;;;;;;5029311;28;20030;-76
2024/01/04 06:07:14;;;;;;;15.25;3.95;;;;;;;;;;5042202;28;20021;-74
2024/01/04 06:09:40;;;;;;;15.70;4.40;;;;;;;;;;5027378;28;20029;-77
2024/01/04 06:12:07;;;;;;;16.17;4.53;;;;;;;;;;5026835;28;20034;-75
2024/01/04 06:14:33;;;;;;;12.27;4.78;;;;;;;;;;5028478;28;20042;-76
2024/01/04 06:16:59;;;;;;;14.07;4.82;;;;;;;;;;5027121;28;20108;-76
2024/01/04 06:19:29;;;;;;;15.65;5.28;;;;;;;;;;5028137;28;20026;-75
2024/01/04 06:21:55;;;;;;;12.30;4.63;;;;;;;;;;5027733;28;20359;-77
2024/01/04 06:24:23;;;;;;;21.23;5.00;;;;;;;;;;5026819;28;20034;-75
2024/01/04 06:26:49;;;;;;;13.38;5.38;;;;;;;;;;5030359;28;20087;-76
2024/01/04 06:29:15;;;;;;;19.02;5.43;;;;;;;;;;5027180;28;20025;-76
2024/01/04 06:31:41;;;;;;;14.00;4.88;;;;;;;;;;5028229;28;20367;-75
2024/01/04 06:34:07;;;;;;;16.80;5.60;;;;;;;;;;5026739;28;20038;-75
2024/01/04 06:36:33;;;;;;;24.00;6.43;;;;;;;;;;5025124;28;20121;-77
2024/01/04 06:38:59;;;;;;;18.75;6.50;;;;;;;;;;5024791;28;20495;-76
2024/01/04 06:41:29;;;;;;;17.33;5.85;;;;;;;;;;5028385;28;20036;-76
2024/01/04 06:43:56;;;;;;;26.85;6.70;;;;;;;;;;5026288;28;20037;-76
2024/01/04 06:46:22;;;;;;;24.10;6.57;;;;;;;;;;5028280;28;20033;-76
2024/01/04 06:48:48;;;;;;;20.25;6.80;;;;;;;;;;5028014;28;20040;-78
2024/01/04 06:51:14;;;;;;;20.80;7.13;;;;;;;;;;5026605;28;20025;-76
2024/01/04 06:53:41;;;;;;;20.83;7.40;;;;;;;;;;5027492;28;20487;-76
2024/01/04 06:56:07;;;;;;;26.27;6.43;;;;;;;;;;5027844;28;20368;-75
2024/01/04 06:58:33;;;;;;;19.38;6.07;;;;;;;;;;5027644;28;20387;-75
2024/01/04 07:00:59;;;;;;;24.40;6.55;;;;;;;;;;5026269;28;20133;-76
2024/01/04 07:03:26;;;;;;;22.10;7.47;;;;;;;;;;5028762;28;20033;-75
2024/01/04 07:05:53;;;;;;;28.38;7.95;;;;;;;;;;5030240;28;20100;-75
2024/01/04 07:08:19;;;;;;;22.92;6.85;;;;;;;;;;5031307;28;20043;-75
2024/01/04 07:10:46;;;;;;;23.42;7.57;;;;;;;;;;5030783;28;20032;-74
2024/01/04 07:13:12;;;;;;;20.00;7.10;;;;;;;;;;5031507;28;20278;-76
2024/01/04 07:15:39;;;;;;;27.77;7.32;;;;;;;;;;5031626;28;21372;-75
2024/01/04 07:18:06;;;;;;;24.52;7.75;;;;;;;;;;5031848;28;20068;-75
2024/01/04 07:20:33;;;;;;;23.40;7.72;;;;;;;;;;5028585;28;20485;-75
2024/01/04 07:22:59;;;;;;;24.98;8.02;;;;;;;;;;5029072;28;20041;-74
2024/01/04 07:25:25;;;;;;;20.33;7.85;;;;;;;;;;5029938;28;20459;-76
2024/01/04 07:27:52;;;;;;;22.92;7.88;;;;;;;;;;5031185;28;20033;-73
2024/01/04 07:30:18;;;;;;;26.60;8.70;;;;;;;;;;5030264;28;20053;-75
2024/01/04 07:32:44;;;;;;;23.23;8.75;;;;;;;;;;5031463;28;20033;-77
2024/01/04 07:35:12;;;;;;;26.83;9.00;;;;;;;;;;5030685;28;20033;-75
2024/01/04 07:37:39;;;;;;;28.05;8.50;;;;;;;;;;5029503;28;20032;-74
2024/01/04 07:40:05;;;;;;;35.85;9.43;;;;;;;;;;5025402;28;20032;-74
2024/01/04 07:42:31;;;;;;;26.38;8.98;;;;;;;;;;5020718;28;20121;-75
2024/01/04 07:44:57;;;;;;;30.00;9.63;;;;;;;;;;5028830;28;20427;-78
2024/01/04 07:47:24;;;;;;;23.17;9.02;;;;;;;;;;5028297;28;20037;-75
2024/01/04 07:49:50;;;;;;;29.85;9.65;;;;;;;;;;5030445;28;20025;-75
2024/01/04 07:52:16;;;;;;;28.00;10.20;;;;;;;;;;5017676;28;20087;-75
2024/01/04 07:54:42;;;;;;;27.83;10.13;;;;;;;;;;5049120;28;20026;-75
2024/01/04 07:57:09;;;;;;;40.00;11.82;;;;;;;;;;5023180;28;20466;-75
2024/01/04 07:59:35;;;;;;;21.50;10.02;;;;;;;;;;5028549;28;20029;-75
2024/01/04 08:02:02;;;;;;;28.08;10.35;;;;;;;;;;5031022;28;20117;-76
2024/01/04 08:04:28;;;;;;;27.60;10.07;;;;;;;;;;5023002;28;20437;-75
2024/01/04 08:06:55;;;;;;;33.85;10.00;;;;;;;;;;5022844;28;20099;-74
2024/01/04 08:09:21;;;;;;;34.05;11.00;;;;;;;;;;5030206;28;20446;-75
2024/01/04 08:11:47;;;;;;;29.02;10.68;;;;;;;;;;5028608;28;20018;-74
2024/01/04 08:14:14;;;;;;;28.15;11.43;;;;;;;;;;5029366;28;20037;-75
2024/01/04 08:16:40;;;;;;;27.20;10.98;;;;;;;;;;5028983;28;20042;-75
2024/01/04 08:19:06;;;;;;;28.60;9.48;;;;;;;;;;5029107;28;20037;-75
2024/01/04 08:21:32;;;;;;;22.20;8.82;;;;;;;;;;5023837;28;20106;-75
2024/01/04 08:23:58;;;;;;;35.33;9.23;;;;;;;;;;5026995;28;20380;-75
2024/01/04 08:26:25;;;;;;;26.65;8.75;;;;;;;;;;5026125;28;20109;-75
2024/01/04 08:28:51;;;;;;;27.35;9.38;;;;;;;;;;5022501;28;20463;-76
2024/01/04 08:31:18;;;;;;;26.08;8.60;;;;;;;;;;5022276;28;20359;-76
2024/01/04 08:33:44;;;;;;;23.42;8.50;;;;;;;;;;5031090;28;20491;-76
2024/01/04 08:36:10;;;;;;;31.50;9.82;;;;;;;;;;5036182;28;20115;-76
2024/01/04 08:38:36;;;;;;;32.85;8.77;;;;;;;;;;5037585;28;20033;-76
2024/01/04 08:41:02;;;;;;;26.75;9.02;;;;;;;;;;5029065;28;20030;-75
2024/01/04 08:43:28;;;;;;;26.77;8.57;;;;;;;;;;5025277;28;20537;-75
2024/01/04 08:45:54;;;;;;;24.15;8.45;;;;;;;;;;5017812;28;20149;-74
2024/01/04 08:48:21;;;;;;;20.52;8.25;;;;;;;;;;5028725;28;20418;-75
2024/01/04 08:50:47;;;;;;;24.27;8.13;;;;;;;;;;5062910;28;20029;-75
2024/01/04 08:53:13;;;;;;;22.20;7.78;;;;;;;;;;5020415;28;20494;-75
2024/01/04 08:55:39;;;;;;;26.17;7.55;;;;;;;;;;5029503;28;20053;-75
2024/01/04 08:58:06;;;;;;;19.50;8.10;;;;;;;;;;5028167;28;20438;-75
2024/01/04 09:00:35;;;;;;;20.77;7.55;;;;;;;;;;5025164;28;20113;-76
2024/01/04 09:03:01;;;;;;;22.70;7.97;;;;;;;;;;5020582;28;20033;-76
2024/01/04 09:05:27;;;;;;;21.85;7.95;;;;;;;;;;5024009;28;20079;-75
2024/01/04 09:07:53;;;;;;;21.88;8.77;;;;;;;;;;5031337;28;20032;-75
2024/01/04 09:10:19;;;;;;;23.00;8.68;;;;;;;;;;5054972;28;20447;-76
2024/01/04 09:12:47;;;;;;;29.25;9.77;;;;;;;;;;5028059;28;20120;-76
2024/01/04 09:15:13;;;;;;;22.92;9.05;;;;;;;;;;5028210;28;20400;-76
2024/01/04 09:17:41;;;;;;;24.63;9.68;;;;;;;;;;5027439;28;20034;-75
2024/01/04 09:20:08;;;;;;;27.88;9.38;;;;;;;;;;5026203;28;20037;-76
2024/01/04 09:22:34;;;;;;;24.98;10.77;;;;;;;;;;5013036;28;20044;-75
2024/01/04 09:25:03;;;;;;;24.48;9.95;;;;;;;;;;5029563;28;20053;-75
2024/01/04 09:27:29;;;;;;;25.58;9.27;;;;;;;;;;5027944;28;20117;-76
2024/01/04 09:29:55;;;;;;;30.15;9.27;;;;;;;;;;5023086;28;20105;-77
2024/01/04 09:32:21;;;;;;;23.33;9.25;;;;;;;;;;5025095;28;20044;-75
2024/01/04 09:34:47;;;;;;;21.65;9.13;;;;;;;;;;5026685;28;20064;-77
2024/01/04 09:37:13;;;;;;;23.50;9.98;;;;;;;;;;5029190;28;20037;-77
2024/01/04 09:39:40;;;;;;;28.23;10.43;;;;;;;;;;5021196;28;20033;-76
2024/01/04 09:42:09;;;;;;;27.45;10.98;;;;;;;;;;5016957;28;20387;-75
2024/01/04 09:44:35;;;;;;;25.13;10.23;;;;;;;;;;5025851;28;20132;-76
2024/01/04 09:47:10;;;;;;;29.67;11.13;;;;;;;;;;5020307;28;20041;-76
2024/01/04 09:49:39;;;;;;;22.35;10.35;;;;;;;;;;5026705;28;20050;-77
2024/01/04 09:52:06;;;;;;;27.90;11.45;;;;;;;;;;5018279;28;20030;-76
2024/01/04 09:54:32;;;;;;;27.33;10.95;;;;;;;;;;5019743;28;20038;-75
2024/01/04 09:57:00;;;;;;;30.38;12.75;;;;;;;;;;5020101;28;20037;-75
2024/01/04 09:59:26;;;;;;;32.80;12.65;;;;;;;;;;5020815;28;20034;-76
2024/01/04 10:01:53;;;;;;;27.77;12.32;;;;;;;;;;5028988;28;20553;-76
2024/01/04 10:04:20;;;;;;;27.02;11.43;;;;;;;;;;5020355;28;20037;-76
2024/01/04 10:06:46;;;;;;;30.52;12.27;;;;;;;;;;5026234;28;20040;-76
2024/01/04 10:09:16;;;;;;;34.95;12.63;;;;;;;;;;5051626;28;20439;-76
2024/01/04 10:11:52;;;;;;;26.60;11.65;;;;;;;;;;5023837;28;20026;-76
2024/01/04 10:14:19;;;;;;;33.75;12.65;;;;;;;;;;5029168;28;20065;-79
2024/01/04 10:16:47;;;;;;;23.95;12.30;;;;;;;;;;5069881;28;20087;-77
2024/01/04 10:19:14;;;;;;;24.60;10.77;;;;;;;;;;5028558;28;20060;-76
2024/01/04 10:21:40;;;;;;;32.47;12.25;;;;;;;;;;5020954;28;20037;-76
2024/01/04 10:24:06;;;;;;;26.40;10.80;;;;;;;;;;5022633;28;20034;-76
2024/01/04 10:26:33;;;;;;;27.17;10.48;;;;;;;;;;5019652;28;20097;-76
2024/01/04 10:28:59;;;;;;;26.52;10.98;;;;;;;;;;5023591;28;20578;-77
2024/01/04 10:31:26;;;;;;;29.55;11.32;;;;;;;;;;5025361;28;20060;-76
2024/01/04 10:34:01;;;;;;;36.60;11.57;;;;;;;;;;5028042;28;20053;-77
2024/01/04 10:36:28;;;;;;;22.15;11.35;;;;;;;;;;5016964;28;20092;-75
2024/01/04 10:38:57;;;;;;;23.23;10.63;;;;;;;;;;5026274;28;20446;-75
2024/01/04 10:41:24;;;;;;;26.90;11.05;;;;;;;;;;5025952;28;20037;-75
2024/01/04 10:43:50;;;;;;;28.80;11.43;;;;;;;;;;5030674;28;20041;-74
2024/01/04 10:46:16;;;;;;;23.95;10.50;;;;;;;;;;5028657;28;20111;-76
2024/01/04 10:48:42;;;;;;;25.30;11.15;;;;;;;;;;5029485;28;20037;-75
2024/01/04 10:51:09;;;;;;;23.77;10.20;;;;;;;;;;5061651;28;20040;-76
2024/01/04 10:53:36;;;;;;;21.75;10.68;;;;;;;;;;5027341;28;20033;-76
2024/01/04 10:56:06;;;;;;;27.17;10.73;;;;;;;;;;5029554;28;20467;-76
2024/01/04 10:58:36;;;;;;;20.17;10.10;;;;;;;;;;5029105;28;20069;-75
2024/01/04 11:01:02;;;;;;;24.52;11.38;;;;;;;;;;5030678;28;20395;-75
2024/01/04 11:03:31;;;;;;;27.35;8.63;;;;;;;;;;5031542;28;20042;-75
2024/01/04 11:06:00;;;;;;;13.00;6.45;;;;;;;;;;5021816;28;20324;-76
2024/01/04 11:08:27;;;;;;;16.67;5.38;;;;;;;;;;5022102;28;20013;-75
2024/01/04 11:10:57;;;;;;;11.25;4.65;;;;;;;;;;5030465;28;20028;-76
2024/01/04 11:13:24;;;;;;;10.18;2.85;;;;;;;;;;5030781;28;20021;-74
2024/01/04 11:15:54;;;;;;;11.18;3.05;;;;;;;;;;5062469;28;20144;-75
2024/01/04 11:18:31;;;;;;;8.90;2.13;;;;;;;;;;5028256;28;20025;-75
2024/01/04 11:21:12;;;;;;;8.57;2.08;;;;;;;;;;5019464;28;20478;-75
2024/01/04 11:23:38;;;;;;;;;;;;;;;;;;5025893;28;20044;-74
2024/01/04 11:26:24;;;;;;;7.22;2.10;;;;;;;;;;5030842;28;19913;-77
2024/01/04 11:28:51;;;;;;;7.45;2.42;;;;;;;;;;5024655;28;20041;-77
2024/01/04 11:31:17;;;;;;;10.18;3.45;;;;;;;;;;5016662;28;20026;-77
2024/01/04 11:33:43;;;;;;;7.28;2.00;;;;;;;;;;5015583;28;20114;-76
2024/01/04 11:36:16;;;;;;;10.52;2.33;;;;;;;;;;5026721;28;20049;-74
2024/01/04 11:38:45;;;;;;;14.18;2.97;;;;;;;;;;5023639;28;20119;-75
2024/01/04 11:41:11;;;;;;;10.68;2.22;;;;;;;;;;5029015;28;20029;-74
2024/01/04 11:43:37;;;;;;;12.73;2.42;;;;;;;;;;5025438;28;20041;-75
2024/01/04 11:46:17;;;;;;;8.02;2.60;;;;;;;;;;5028885;28;20151;-75
2024/01/04 11:48:48;;;;;;;5.13;2.30;;;;;;;;;;5028065;28;20479;-75
2024/01/04 11:51:14;;;;;;;6.28;2.58;;;;;;;;;;5023455;28;20047;-75
2024/01/04 11:53:40;;;;;;;10.77;3.38;;;;;;;;;;5028274;28;20402;-75
2024/01/04 11:56:08;;;;;;;8.25;3.15;;;;;;;;;;5035144;28;20068;-75
2024/01/04 11:58:34;;;;;;;11.27;3.42;;;;;;;;;;5025920;28;20022;-74
2024/01/04 12:01:02;;;;;;;10.02;3.10;;;;;;;;;;5028916;28;20107;-75
2024/01/04 12:03:30;;;;;;;7.80;3.25;;;;;;;;;;5011458;28;20171;-75
2024/01/04 12:05:56;;;;;;;6.95;2.95;;;;;;;;;;5029312;28;20040;-75
2024/01/04 12:08:28;;;;;;;6.57;2.60;;;;;;;;;;5028427;28;20030;-75
2024/01/04 12:10:55;;;;;;;7.50;3.08;;;;;;;;;;5031304;28;20426;-75
2024/01/04 12:13:21;;;;;;;6.32;2.60;;;;;;;;;;5014115;28;20057;-75
2024/01/04 12:15:47;;;;;;;6.75;2.20;;;;;;;;;;5028564;28;20087;-76
2024/01/04 12:18:14;;;;;;;6.15;2.13;;;;;;;;;;5023759;28;20037;-75
2024/01/04 12:20:40;;;;;;;8.35;2.65;;;;;;;;;;5024084;28;20025;-76
2024/01/04 12:23:07;;;;;;;6.25;2.13;;;;;;;;;;5027053;28;20042;-75
2024/01/04 12:25:36;;;;;;;8.02;2.35;;;;;;;;;;5026148;28;20132;-76
2024/01/04 12:28:03;;;;;;;7.60;1.95;;;;;;;;;;5029775;28;20032;-75
2024/01/04 12:30:30;;;;;;;3.92;1.85;;;;;;;;;;5026642;28;20033;-75
2024/01/04 12:32:56;;;;;;;4.70;1.38;;;;;;;;;;5030115;28;20060;-75
2024/01/04 12:35:23;;;;;;;5.20;1.55;;;;;;;;;;5026318;28;20183;-75
2024/01/04 12:37:59;;;;;;;4.50;1.65;;;;;;;;;;5030243;28;20029;-76
2024/01/04 12:40:26;;;;;;;5.97;1.52;;;;;;;;;;5020324;28;20033;-76
2024/01/04 12:42:52;;;;;;;5.25;1.50;;;;;;;;;;5022121;28;20025;-76
2024/01/04 12:45:18;;;;;;;3.90;1.30;;;;;;;;;;5026053;28;20048;-75
2024/01/04 12:47:44;;;;;;;6.93;1.63;;;;;;;;;;5029075;28;20025;-75
2024/01/04 12:50:11;;;;;;;8.23;1.50;;;;;;;;;;5029245;28;20394;-75
2024/01/04 12:52:39;;;;;;;8.95;1.75;;;;;;;;;;5029658;28;20502;-74
2024/01/04 12:55:06;;;;;;;5.63;1.90;;;;;;;;;;5029742;28;20021;-75
2024/01/04 12:57:34;;;;;;;6.55;1.60;;;;;;;;;;5029760;28;20037;-75
2024/01/04 13:00:01;;;;;;;8.15;1.50;;;;;;;;;;5028344;28;20384;-75
2024/01/04 13:02:27;;;;;;;8.30;1.73;;;;;;;;;;5027031;28;20392;-75
2024/01/04 13:04:53;;;;;;;10.48;1.80;;;;;;;;;;5030749;28;20451;-75
2024/01/04 13:07:19;;;;;;;8.68;1.98;;;;;;;;;;5030733;28;20030;-74
2024/01/04 13:09:46;;;;;;;13.35;3.40;;;;;;;;;;5029323;28;20806;-74
2024/01/04 13:12:12;;;;;;;9.07;2.05;;;;;;;;;;5029199;28;20545;-74
2024/01/04 13:14:38;;;;;;;9.35;2.67;;;;;;;;;;5029620;28;20119;-76
2024/01/04 13:17:04;;;;;;;7.25;1.92;;;;;;;;;;5027745;28;20441;-75
2024/01/04 13:19:30;;;;;;;12.25;3.08;;;;;;;;;;5029083;28;20041;-74
2024/01/04 13:21:57;;;;;;;12.25;2.53;;;;;;;;;;5027508;28;20044;-75
2024/01/04 13:24:23;;;;;;;13.38;2.75;;;;;;;;;;5027309;28;20037;-76
2024/01/04 13:26:51;;;;;;;9.30;2.67;;;;;;;;;;5029449;28;20032;-77
2024/01/04 13:29:17;;;;;;;8.45;2.20;;;;;;;;;;5028261;28;20067;-78
2024/01/04 13:31:43;;;;;;;6.63;2.58;;;;;;;;;;5028590;28;20029;-76
2024/01/04 13:34:09;;;;;;;12.32;2.40;;;;;;;;;;5024677;28;20449;-76
2024/01/04 13:36:35;;;;;;;7.40;1.75;;;;;;;;;;5027794;28;20111;-75
2024/01/04 13:39:02;;;;;;;4.38;1.73;;;;;;;;;;5022357;28;20120;-75
2024/01/04 13:41:28;;;;;;;7.13;1.70;;;;;;;;;;5025526;28;20041;-76
2024/01/04 13:43:54;;;;;;;6.40;1.48;;;;;;;;;;5028150;28;20159;-75
2024/01/04 13:46:20;;;;;;;5.97;1.10;;;;;;;;;;5026216;28;20030;-75
2024/01/04 13:48:46;;;;;;;4.03;1.17;;;;;;;;;;5027166;28;20048;-76
2024/01/04 13:51:13;;;;;;;6.22;1.20;;;;;;;;;;5027929;28;20609;-74
2024/01/04 13:53:39;;;;;;;7.53;1.33;;;;;;;;;;5028423;28;20436;-76
2024/01/04 13:56:05;;;;;;;4.40;1.20;;;;;;;;;;5027201;28;20475;-75
2024/01/04 13:58:31;;;;;;;4.95;1.80;;;;;;;;;;5028862;28;20041;-75
2024/01/04 14:00:57;;;;;;;5.70;1.60;;;;;;;;;;5022726;28;20057;-75
2024/01/04 14:03:24;;;;;;;8.18;1.75;;;;;;;;;;5027765;28;20033;-76
2024/01/04 14:05:51;;;;;;;8.65;1.80;;;;;;;;;;5028997;28;20501;-76
2024/01/04 14:08:17;;;;;;;8.00;2.60;;;;;;;;;;5028739;28;20057;-75
2024/01/04 14:10:43;;;;;;;5.57;1.77;;;;;;;;;;5028604;28;20116;-75
2024/01/04 14:13:10;;;;;;;4.15;1.55;;;;;;;;;;5027398;28;20038;-75
2024/01/04 14:15:36;;;;;;;7.78;2.15;;;;;;;;;;5027027;28;20112;-75
2024/01/04 14:18:03;;;;;;;6.95;1.95;;;;;;;;;;5027831;28;20048;-75
2024/01/04 14:20:30;;;;;;;10.20;2.17;;;;;;;;;;5027850;28;20033;-74
2024/01/04 14:22:56;;;;;;;7.70;1.83;;;;;;;;;;5026637;28;20037;-75
2024/01/04 14:25:22;;;;;;;6.50;1.95;;;;;;;;;;5026820;28;20375;-75
2024/01/04 14:27:50;;;;;;;7.85;2.05;;;;;;;;;;5029100;28;20036;-75